createdAt,value
2022-12-06T00:00:19.370Z,80.12
2022-12-06T00:05:18.984Z,80.06
2022-12-06T00:10:19.123Z,80.25
2022-12-06T00:15:19.369Z,80.49
2022-12-06T00:20:19.132Z,80.74
2022-12-06T00:25:19.018Z,81.12
2022-12-06T00:30:19.368Z,81.49
2022-12-06T00:35:19.024Z,81.62
2022-12-06T00:40:18.968Z,82.08
2022-12-06T00:45:19.182Z,82.31
2022-12-06T00:50:18.911Z,82.62
2022-12-06T00:55:19.112Z,83.27
2022-12-06T01:00:19.749Z,83.41
2022-12-06T01:05:18.989Z,83.54
2022-12-06T01:10:19.186Z,83.55
2022-12-06T01:15:19.056Z,83.69
2022-12-06T01:20:18.883Z,83.95
2022-12-06T01:25:19.448Z,84.40
2022-12-06T01:30:19.053Z,84.33
2022-12-06T01:35:19.020Z,84.35
2022-12-06T01:40:18.969Z,84.39
2022-12-06T01:45:19.093Z,84.45
2022-12-06T01:50:23.248Z,84.63
2022-12-06T01:55:20.079Z,84.77
2022-12-06T02:00:19.377Z,84.80
2022-12-06T02:05:19.557Z,84.98
2022-12-06T02:10:19.200Z,84.78
2022-12-06T02:15:24.408Z,85.00
2022-12-06T02:20:27.716Z,85.05
2022-12-06T02:25:43.147Z,85.12
2022-12-06T02:30:36.160Z,85.07
2022-12-06T02:35:27.042Z,85.22
2022-12-06T02:40:22.568Z,85.07
2022-12-06T03:00:30.421Z,85.11
2022-12-06T03:05:26.674Z,85.29
2022-12-06T03:10:27.837Z,85.39
2022-12-06T03:15:25.938Z,85.62
2022-12-06T03:20:23.829Z,85.29
2022-12-06T03:25:19.383Z,85.61
2022-12-06T03:30:19.219Z,85.86
2022-12-06T03:35:25.073Z,85.93
2022-12-06T03:40:23.408Z,85.97
2022-12-06T03:45:21.782Z,86.26
2022-12-06T03:50:24.200Z,85.93
2022-12-06T03:55:18.845Z,86.01
2022-12-06T04:00:19.157Z,85.95
2022-12-06T04:05:18.866Z,85.94
2022-12-06T04:10:19.944Z,86.08
2022-12-06T04:15:20.114Z,86.01
2022-12-06T04:20:18.910Z,86.04
2022-12-06T04:25:18.774Z,86.21
2022-12-06T04:30:28.705Z,86.39
2022-12-06T04:35:28.801Z,86.35
2022-12-06T04:40:18.717Z,86.27
2022-12-06T04:45:18.972Z,86.35
2022-12-06T04:50:18.961Z,86.28
2022-12-06T04:55:18.740Z,86.39
2022-12-06T05:00:19.117Z,86.26
2022-12-06T05:05:18.948Z,86.54
2022-12-06T05:10:19.032Z,86.51
2022-12-06T05:15:18.684Z,86.25
2022-12-06T05:20:19.404Z,86.24
2022-12-06T05:25:18.801Z,86.07
2022-12-06T05:30:18.836Z,86.17
2022-12-06T05:35:19.040Z,86.24
2022-12-06T05:40:18.773Z,86.23
2022-12-06T05:45:18.903Z,86.22
2022-12-06T05:50:19.023Z,86.13
2022-12-06T05:55:18.781Z,86.26
2022-12-06T06:00:19.652Z,86.21
2022-12-06T06:05:18.880Z,86.11
2022-12-06T06:10:18.949Z,86.17
2022-12-06T06:15:18.721Z,87.04
2022-12-06T06:20:18.954Z,87.21
2022-12-06T06:25:18.926Z,87.01
2022-12-06T06:30:18.821Z,86.76
2022-12-06T06:35:18.863Z,86.44
2022-12-06T06:40:18.775Z,86.29
2022-12-06T06:45:20.599Z,86.13
2022-12-06T06:50:18.979Z,86.13
2022-12-06T06:55:19.488Z,85.93
2022-12-06T07:00:18.827Z,85.90
2022-12-06T07:05:19.175Z,85.88
2022-12-06T07:10:19.088Z,85.80
2022-12-06T07:15:19.764Z,85.81
2022-12-06T07:20:19.100Z,85.90
2022-12-06T07:25:18.673Z,85.90
2022-12-06T07:30:22.768Z,85.82
2022-12-06T07:35:19.201Z,86.03
2022-12-06T07:40:26.640Z,86.09
2022-12-06T07:45:18.738Z,85.98
2022-12-06T07:50:21.211Z,85.93
2022-12-06T07:55:19.047Z,85.86
2022-12-06T08:00:19.755Z,85.97
2022-12-06T08:05:18.833Z,86.45
2022-12-06T08:10:18.728Z,86.82
2022-12-06T08:15:18.548Z,87.17
2022-12-06T08:20:18.714Z,87.22
2022-12-06T08:25:18.638Z,87.36
2022-12-06T08:30:18.639Z,87.27
2022-12-06T08:35:18.777Z,87.14
2022-12-06T08:40:18.529Z,86.99
2022-12-06T08:45:18.605Z,87.03
2022-12-06T08:50:18.716Z,86.75
2022-12-06T08:55:18.620Z,86.84
2022-12-06T09:00:19.363Z,87.04
2022-12-06T09:05:18.880Z,86.92
2022-12-06T09:10:18.538Z,86.67
2022-12-06T09:15:18.610Z,86.79
2022-12-06T09:20:18.995Z,86.82
2022-12-06T09:25:18.678Z,86.85
2022-12-06T09:30:18.536Z,86.69
2022-12-06T09:35:24.741Z,86.73
2022-12-06T09:40:28.244Z,86.72
2022-12-06T09:45:26.920Z,86.81
2022-12-06T09:50:26.820Z,86.59
2022-12-06T09:55:28.437Z,86.73
2022-12-06T10:00:23.152Z,86.72
2022-12-06T10:05:25.908Z,86.96
2022-12-06T10:10:31.175Z,87.19
2022-12-06T10:15:25.746Z,87.13
2022-12-06T10:20:29.121Z,86.92
2022-12-06T10:25:23.991Z,86.84
2022-12-06T10:30:18.815Z,87.32
2022-12-06T10:35:29.652Z,87.43
2022-12-06T10:40:25.051Z,87.60
2022-12-06T10:45:35.219Z,87.42
2022-12-06T10:50:24.384Z,87.45
2022-12-06T10:55:25.434Z,87.50
2022-12-06T11:00:22.573Z,87.21
2022-12-06T11:05:23.157Z,87.66
2022-12-06T11:10:21.256Z,88.00
2022-12-06T11:15:22.324Z,88.14
2022-12-06T11:20:24.937Z,88.18
2022-12-06T11:25:24.681Z,88.59
2022-12-06T11:30:20.751Z,88.45
2022-12-06T11:35:22.279Z,88.38
2022-12-06T11:40:24.232Z,88.47
2022-12-06T11:45:23.652Z,88.78
2022-12-06T11:50:19.140Z,88.42
2022-12-06T11:55:21.755Z,88.35
2022-12-06T12:00:20.704Z,88.14
2022-12-06T12:05:21.968Z,88.43
2022-12-06T12:10:26.672Z,88.67
2022-12-06T12:15:18.969Z,89.12
2022-12-06T12:20:23.206Z,89.10
2022-12-06T12:25:23.161Z,89.17
2022-12-06T12:30:26.939Z,89.66
2022-12-06T12:35:25.066Z,89.59
2022-12-06T12:40:21.577Z,90.04
2022-12-06T12:45:18.494Z,90.29
2022-12-06T12:50:19.919Z,90.34
2022-12-06T12:55:20.733Z,89.75
2022-12-06T13:00:21.081Z,90.03
2022-12-06T13:05:33.319Z,90.25
2022-12-06T13:10:23.707Z,89.96
2022-12-06T13:15:25.107Z,90.00
2022-12-06T13:20:21.986Z,90.21
2022-12-06T13:25:18.539Z,90.31
2022-12-06T13:30:20.846Z,90.38
2022-12-06T13:35:26.596Z,90.30
2022-12-06T13:40:38.194Z,90.77
2022-12-06T13:45:38.202Z,91.11
2022-12-06T13:50:38.210Z,91.02
2022-12-06T13:55:38.122Z,91.26
2022-12-06T14:00:38.114Z,91.33
2022-12-06T14:05:38.215Z,91.31
2022-12-06T14:10:18.493Z,91.35
2022-12-06T14:15:18.774Z,91.43
2022-12-06T14:20:21.288Z,91.44
2022-12-06T14:25:21.812Z,91.70
2022-12-06T14:30:25.453Z,91.79
2022-12-06T14:35:20.926Z,91.59
2022-12-06T14:40:44.688Z,91.30
2022-12-06T14:45:18.807Z,91.49
2022-12-06T14:50:26.094Z,91.51
2022-12-06T14:55:19.510Z,91.07
2022-12-06T15:00:27.180Z,91.04
2022-12-06T15:05:30.765Z,91.03
2022-12-06T15:10:22.448Z,91.34
2022-12-06T15:15:30.335Z,91.60
2022-12-06T15:20:18.442Z,91.57
2022-12-06T15:25:18.304Z,91.65
2022-12-06T15:30:18.767Z,91.75
2022-12-06T15:35:19.121Z,91.66
2022-12-06T15:40:18.190Z,91.66
2022-12-06T15:45:18.625Z,91.73
2022-12-06T15:50:18.813Z,91.76
2022-12-06T15:55:18.761Z,91.70
2022-12-06T16:00:18.859Z,91.41
2022-12-06T16:05:18.377Z,91.37
2022-12-06T16:10:22.329Z,91.45
2022-12-06T16:15:18.577Z,91.18
2022-12-06T16:20:28.276Z,90.87
2022-12-06T16:25:18.304Z,91.10
2022-12-06T16:30:30.435Z,90.85
2022-12-06T16:35:18.184Z,90.89
2022-12-06T16:40:20.061Z,90.67
2022-12-06T16:45:18.640Z,89.92
2022-12-06T16:50:22.557Z,89.77
2022-12-06T16:55:18.403Z,89.66
2022-12-06T17:00:18.818Z,89.80
2022-12-06T17:05:21.110Z,89.69
2022-12-06T17:10:19.037Z,89.44
2022-12-06T17:15:20.561Z,89.24
2022-12-06T17:20:19.092Z,89.42
2022-12-06T17:25:18.599Z,89.45
2022-12-06T17:30:19.102Z,89.41
2022-12-06T17:35:18.117Z,88.97
2022-12-06T17:40:18.302Z,89.43
2022-12-06T17:45:23.285Z,89.67
2022-12-06T17:50:18.267Z,89.83
2022-12-06T17:55:18.250Z,89.66
2022-12-06T18:00:18.524Z,89.78
2022-12-06T18:05:18.048Z,89.99
2022-12-06T18:10:18.239Z,89.89
2022-12-06T18:15:28.069Z,89.81
2022-12-06T18:20:18.047Z,89.75
2022-12-06T18:25:18.078Z,89.76
2022-12-06T18:30:18.428Z,89.86
2022-12-06T18:35:18.060Z,89.79
2022-12-06T18:40:18.634Z,90.12
2022-12-06T18:45:18.114Z,90.33
2022-12-06T18:50:18.134Z,90.57
2022-12-06T18:55:18.311Z,90.50
2022-12-06T19:00:18.860Z,90.26
2022-12-06T19:05:32.918Z,89.63
2022-12-06T19:10:19.293Z,89.26
2022-12-06T19:15:18.222Z,88.97
2022-12-06T19:20:18.622Z,88.85
2022-12-06T19:25:18.357Z,88.78
2022-12-06T19:30:18.395Z,88.62
2022-12-06T19:35:18.001Z,89.07
2022-12-06T19:40:18.214Z,89.38
2022-12-06T19:45:18.100Z,89.36
2022-12-06T19:50:18.334Z,89.06
2022-12-06T19:55:17.951Z,89.00
2022-12-06T20:00:22.650Z,89.31
2022-12-06T20:05:17.979Z,89.50
2022-12-06T20:10:18.050Z,89.03
2022-12-06T20:15:18.059Z,88.83
2022-12-06T20:20:17.987Z,88.61
2022-12-06T20:25:18.004Z,88.58
2022-12-06T20:30:20.417Z,88.51
2022-12-06T20:35:18.002Z,88.30
2022-12-06T20:40:18.266Z,88.22
2022-12-06T20:45:19.505Z,88.43
2022-12-06T20:50:18.135Z,88.48
2022-12-06T20:55:17.918Z,88.39
2022-12-06T21:00:19.529Z,88.54
2022-12-06T21:05:19.052Z,88.31
2022-12-06T21:10:18.272Z,88.23
2022-12-06T21:15:17.973Z,88.46
2022-12-06T21:20:17.928Z,88.24
2022-12-06T21:25:17.896Z,88.46
2022-12-06T21:30:18.408Z,88.28
2022-12-06T21:35:17.873Z,88.20
2022-12-06T21:40:18.985Z,88.06
2022-12-06T21:45:18.094Z,88.27
2022-12-06T21:50:17.915Z,88.32
2022-12-06T21:55:17.869Z,88.26
2022-12-06T22:00:19.037Z,88.33
2022-12-06T22:05:17.962Z,88.55
2022-12-06T22:10:17.884Z,88.60
2022-12-06T22:15:18.223Z,88.62
2022-12-06T22:20:17.858Z,88.67
2022-12-06T22:25:19.412Z,88.66
2022-12-06T22:30:18.358Z,88.70
2022-12-06T22:35:17.807Z,88.68
2022-12-06T22:40:17.928Z,88.92
2022-12-06T22:45:18.247Z,88.78
2022-12-06T22:50:17.912Z,88.77
2022-12-06T22:55:17.863Z,88.59
2022-12-06T23:00:18.624Z,88.69
2022-12-06T23:05:17.903Z,88.68
2022-12-06T23:08:36.474Z,88.68
2022-12-06T23:10:17.830Z,88.83
2022-12-06T23:15:18.321Z,89.12
2022-12-06T23:20:17.792Z,89.27
2022-12-06T23:25:17.961Z,89.22
2022-12-06T23:30:18.160Z,89.26
2022-12-06T23:35:18.111Z,89.09
2022-12-06T23:40:17.900Z,88.98
2022-12-06T23:45:18.424Z,88.96
2022-12-06T23:50:17.920Z,88.97
2022-12-06T23:55:17.999Z,88.97
